Time,TemperatureF,DewpointF,PressureIn,WindDirection,WindDirectionDegrees,WindSpeedMPH,WindSpeedGustMPH,Humidity,HourlyPrecipIn,Conditions,Clouds,dailyrainin,SolarRadiationWatts/m^2,SoftwareType,DateUTC
2013-05-19 00:01:00,53.0,42.0,-100.00,SSW,194,4.0,7.0,65,0.00,,,0.00,0.000000,,2013-05-19 07:01:00,
2013-05-19 00:32:00,54.0,26.0,-100.00,WNW,289,5.0,16.0,33,0.00,,,0.00,0.000000,,2013-05-19 07:32:00,
2013-05-19 00:42:00,54.0,26.0,-100.00,WNW,289,5.0,16.0,33,0.00,,,0.00,0.000000,,2013-05-19 07:42:00,
2013-05-19 00:52:00,54.0,26.0,-100.00,WNW,289,5.0,16.0,33,0.00,,,0.00,0.000000,,2013-05-19 07:52:00,
2013-05-19 01:01:00,54.0,26.0,-100.00,WNW,289,5.0,16.0,33,0.00,,,0.00,0.000000,,2013-05-19 08:01:00,
2013-05-19 01:02:00,50.0,28.0,-100.00,WNW,303,3.0,12.0,42,0.00,,,0.00,0.000000,,2013-05-19 08:02:00,
2013-05-19 01:32:00,50.0,28.0,-100.00,WNW,303,3.0,12.0,42,0.00,,,0.00,0.000000,,2013-05-19 08:32:00,
2013-05-19 01:42:00,50.0,28.0,-100.00,WNW,303,3.0,12.0,42,0.00,,,0.00,0.000000,,2013-05-19 08:42:00,
2013-05-19 01:52:00,50.0,28.0,-100.00,WNW,303,3.0,12.0,42,0.00,,,0.00,0.000000,,2013-05-19 08:52:00,
2013-05-19 02:02:00,53.0,25.0,-100.00,WNW,295,6.0,10.0,33,0.00,,,0.00,0.000000,,2013-05-19 09:02:00,
2013-05-19 02:33:00,53.0,25.0,-100.00,WNW,295,6.0,10.0,33,0.00,,,0.00,0.000000,,2013-05-19 09:33:00,
2013-05-19 02:43:00,53.0,25.0,-100.00,WNW,295,6.0,10.0,33,0.00,,,0.00,0.000000,,2013-05-19 09:43:00,
2013-05-19 02:53:00,53.0,25.0,-100.00,WNW,295,6.0,10.0,33,0.00,,,0.00,0.000000,,2013-05-19 09:53:00,
2013-05-19 03:02:00,49.0,25.0,-100.00,NE,40,4.0,12.0,38,0.00,,,0.00,0.000000,,2013-05-19 10:02:00,
2013-05-19 03:23:00,49.0,25.0,-100.00,NE,40,4.0,12.0,38,0.00,,,0.00,0.000000,,2013-05-19 10:23:00,
2013-05-19 03:33:00,49.0,25.0,-100.00,NE,40,4.0,12.0,38,0.00,,,0.00,0.000000,,2013-05-19 10:33:00,
2013-05-19 03:42:00,49.0,25.0,-100.00,NE,40,4.0,12.0,38,0.00,,,0.00,0.000000,,2013-05-19 10:42:00,
2013-05-19 03:52:00,49.0,25.0,-100.00,NE,40,4.0,12.0,38,0.00,,,0.00,0.000000,,2013-05-19 10:52:00,
2013-05-19 04:32:00,48.0,24.0,-100.00,North,352,3.0,5.0,38,0.00,,,0.00,0.000000,,2013-05-19 11:32:00,
2013-05-19 04:42:00,48.0,24.0,-100.00,North,352,3.0,5.0,38,0.00,,,0.00,0.000000,,2013-05-19 11:42:00,
2013-05-19 04:52:00,48.0,24.0,-100.00,North,352,3.0,5.0,38,0.00,,,0.00,0.000000,,2013-05-19 11:52:00,
2013-05-19 05:01:00,48.0,24.0,-100.00,North,352,3.0,5.0,38,0.00,,,0.00,0.000000,,2013-05-19 12:01:00,
2013-05-19 05:32:00,49.0,23.0,-100.00,North,357,3.0,5.0,35,0.00,,,0.00,0.000000,,2013-05-19 12:32:00,
2013-05-19 05:42:00,49.0,23.0,-100.00,North,357,3.0,5.0,35,0.00,,,0.00,0.000000,,2013-05-19 12:42:00,
2013-05-19 05:52:00,49.0,23.0,-100.00,North,357,3.0,5.0,35,0.00,,,0.00,0.000000,,2013-05-19 12:52:00,
2013-05-19 06:01:00,49.0,23.0,-100.00,North,357,3.0,5.0,35,0.00,,,0.00,0.000000,,2013-05-19 13:01:00,
2013-05-19 07:32:00,56.0,27.0,-100.00,NE,35,3.0,6.0,33,-99.99,,,0.00,89.000000,,2013-05-19 14:32:00,
2013-05-19 07:42:00,56.0,27.0,-100.00,NE,35,3.0,6.0,33,-99.99,,,0.00,89.000000,,2013-05-19 14:42:00,
2013-05-19 07:52:00,56.0,27.0,-100.00,NE,35,3.0,6.0,33,-99.99,,,0.00,89.000000,,2013-05-19 14:52:00,
2013-05-19 08:01:00,56.0,27.0,-100.00,NE,35,3.0,6.0,33,-99.99,,,0.00,89.000000,,2013-05-19 15:01:00,
2013-05-19 08:02:00,60.0,28.0,-100.00,North,353,5.0,9.0,29,0.00,,,0.00,317.000000,,2013-05-19 15:02:00,
2013-05-19 08:33:00,60.0,28.0,-100.00,North,353,5.0,9.0,29,0.00,,,0.00,317.000000,,2013-05-19 15:33:00,
2013-05-19 08:43:00,60.0,28.0,-100.00,North,353,5.0,9.0,29,0.00,,,0.00,317.000000,,2013-05-19 15:43:00,
2013-05-19 08:53:00,60.0,28.0,-100.00,North,353,5.0,9.0,29,0.00,,,0.00,317.000000,,2013-05-19 15:53:00,
2013-05-19 09:32:00,61.0,29.0,-100.00,NW,321,6.0,10.0,29,0.00,,,0.00,564.000000,,2013-05-19 16:32:00,
2013-05-19 09:42:00,61.0,29.0,-100.00,NW,321,6.0,10.0,29,0.00,,,0.00,564.000000,,2013-05-19 16:42:00,
2013-05-19 09:52:00,61.0,29.0,-100.00,NW,321,6.0,10.0,29,0.00,,,0.00,564.000000,,2013-05-19 16:52:00,
2013-05-19 10:01:00,61.0,29.0,-100.00,NW,321,6.0,10.0,29,0.00,,,0.00,564.000000,,2013-05-19 17:01:00,
2013-05-19 10:02:00,64.0,28.0,-100.00,NW,313,6.0,11.0,26,0.00,,,0.00,798.000000,,2013-05-19 17:02:00,
2013-05-19 10:32:00,64.0,28.0,-100.00,NW,313,6.0,11.0,26,0.00,,,0.00,798.000000,,2013-05-19 17:32:00,
2013-05-19 10:42:00,64.0,28.0,-100.00,NW,313,6.0,11.0,26,0.00,,,0.00,798.000000,,2013-05-19 17:42:00,
2013-05-19 10:52:00,64.0,28.0,-100.00,NW,313,6.0,11.0,26,0.00,,,0.00,798.000000,,2013-05-19 17:52:00,
2013-05-19 11:32:00,68.0,30.0,-100.00,NW,314,6.0,12.0,24,0.00,,,0.00,988.000000,,2013-05-19 18:32:00,
2013-05-19 11:43:00,68.0,30.0,-100.00,NW,314,6.0,12.0,24,0.00,,,0.00,988.000000,,2013-05-19 18:43:00,
2013-05-19 11:53:00,68.0,30.0,-100.00,NW,314,6.0,12.0,24,0.00,,,0.00,988.000000,,2013-05-19 18:53:00,
2013-05-19 12:01:00,68.0,30.0,-100.00,NW,314,6.0,12.0,24,0.00,,,0.00,988.000000,,2013-05-19 19:01:00,
2013-05-19 12:02:00,69.0,30.0,-100.00,WNW,302,9.0,15.0,23,0.00,,,0.00,1117.000000,,2013-05-19 19:02:00,
2013-05-19 12:32:00,69.0,30.0,-100.00,WNW,302,9.0,15.0,23,0.00,,,0.00,1117.000000,,2013-05-19 19:32:00,
2013-05-19 12:42:00,69.0,30.0,-100.00,WNW,302,9.0,15.0,23,0.00,,,0.00,1117.000000,,2013-05-19 19:42:00,
2013-05-19 12:52:00,69.0,30.0,-100.00,WNW,302,9.0,15.0,23,0.00,,,0.00,1117.000000,,2013-05-19 19:52:00,
2013-05-19 13:02:00,71.0,28.0,-100.00,NW,314,7.0,16.0,20,0.00,,,0.00,1177.000000,,2013-05-19 20:02:00,
2013-05-19 13:32:00,71.0,28.0,-100.00,NW,314,7.0,16.0,20,0.00,,,0.00,1177.000000,,2013-05-19 20:32:00,
2013-05-19 13:42:00,71.0,28.0,-100.00,NW,314,7.0,16.0,20,0.00,,,0.00,1177.000000,,2013-05-19 20:42:00,
2013-05-19 13:52:00,71.0,28.0,-100.00,NW,314,7.0,16.0,20,0.00,,,0.00,1177.000000,,2013-05-19 20:52:00,
2013-05-19 14:02:00,75.0,27.0,-100.00,NNW,347,7.0,16.0,17,0.00,,,0.00,1176.000000,,2013-05-19 21:02:00,
2013-05-19 14:32:00,75.0,27.0,-100.00,NNW,347,7.0,16.0,17,0.00,,,0.00,1176.000000,,2013-05-19 21:32:00,
2013-05-19 14:43:00,75.0,27.0,-100.00,NNW,347,7.0,16.0,17,0.00,,,0.00,1176.000000,,2013-05-19 21:43:00,
2013-05-19 14:53:00,75.0,27.0,-100.00,NNW,347,7.0,16.0,17,0.00,,,0.00,1176.000000,,2013-05-19 21:53:00,
2013-05-19 15:02:00,75.0,26.0,-100.00,NNW,343,9.0,14.0,16,0.00,,,0.00,1112.000000,,2013-05-19 22:02:00,
2013-05-19 15:33:00,75.0,26.0,-100.00,NNW,343,9.0,14.0,16,0.00,,,0.00,1112.000000,,2013-05-19 22:33:00,
2013-05-19 15:42:00,75.0,26.0,-100.00,NNW,343,9.0,14.0,16,0.00,,,0.00,1112.000000,,2013-05-19 22:42:00,
2013-05-19 15:53:00,75.0,26.0,-100.00,NNW,343,9.0,14.0,16,0.00,,,0.00,1112.000000,,2013-05-19 22:53:00,
2013-05-19 16:32:00,76.0,27.0,-100.00,WNW,290,8.0,16.0,16,0.00,,,0.00,977.000000,,2013-05-19 23:32:00,
2013-05-19 16:42:00,76.0,27.0,-100.00,WNW,290,8.0,16.0,16,0.00,,,0.00,977.000000,,2013-05-19 23:42:00,
2013-05-19 16:52:00,76.0,27.0,-100.00,WNW,290,8.0,16.0,16,0.00,,,0.00,977.000000,,2013-05-19 23:52:00,
2013-05-19 17:01:00,76.0,27.0,-100.00,WNW,290,8.0,16.0,16,0.00,,,0.00,977.000000,,2013-05-20 00:01:00,
2013-05-19 17:22:00,77.0,24.0,-100.00,NNW,346,5.0,16.0,14,0.00,,,0.00,786.000000,,2013-05-20 00:22:00,
2013-05-19 17:32:00,77.0,24.0,-100.00,NNW,346,5.0,16.0,14,0.00,,,0.00,786.000000,,2013-05-20 00:32:00,
2013-05-19 17:42:00,77.0,24.0,-100.00,NNW,346,5.0,16.0,14,0.00,,,0.00,786.000000,,2013-05-20 00:42:00,
2013-05-19 17:52:00,77.0,24.0,-100.00,NNW,346,5.0,16.0,14,0.00,,,0.00,786.000000,,2013-05-20 00:52:00,
2013-05-19 18:01:00,77.0,24.0,-100.00,NNW,346,5.0,16.0,14,0.00,,,0.00,786.000000,,2013-05-20 01:01:00,
2013-05-19 18:32:00,76.0,23.0,-100.00,NW,314,5.0,14.0,14,0.00,,,0.00,548.000000,,2013-05-20 01:32:00,
2013-05-19 18:42:00,76.0,23.0,-100.00,NW,314,5.0,14.0,14,0.00,,,0.00,548.000000,,2013-05-20 01:42:00,
2013-05-19 18:52:00,76.0,23.0,-100.00,NW,314,5.0,14.0,14,0.00,,,0.00,548.000000,,2013-05-20 01:52:00,
2013-05-19 19:01:00,76.0,23.0,-100.00,NW,314,5.0,14.0,14,0.00,,,0.00,548.000000,,2013-05-20 02:01:00,
2013-05-19 19:22:00,74.0,40.0,-100.00,WNW,288,7.0,11.0,29,0.00,,,0.00,289.000000,,2013-05-20 02:22:00,
2013-05-19 19:32:00,74.0,40.0,-100.00,WNW,288,7.0,11.0,29,0.00,,,0.00,289.000000,,2013-05-20 02:32:00,
2013-05-19 19:42:00,74.0,40.0,-100.00,WNW,288,7.0,11.0,29,0.00,,,0.00,289.000000,,2013-05-20 02:42:00,
2013-05-19 19:52:00,74.0,40.0,-100.00,WNW,288,7.0,11.0,29,0.00,,,0.00,289.000000,,2013-05-20 02:52:00,
2013-05-19 20:01:00,74.0,40.0,-100.00,WNW,288,7.0,11.0,29,0.00,,,0.00,289.000000,,2013-05-20 03:01:00,
2013-05-19 20:02:00,65.0,34.0,-100.00,SW,230,4.0,11.0,31,0.00,,,0.00,53.000000,,2013-05-20 03:02:00,
2013-05-19 20:33:00,65.0,34.0,-100.00,SW,230,4.0,11.0,31,0.00,,,0.00,53.000000,,2013-05-20 03:33:00,
2013-05-19 20:43:00,65.0,34.0,-100.00,SW,230,4.0,11.0,31,0.00,,,0.00,53.000000,,2013-05-20 03:43:00,
2013-05-19 20:52:00,65.0,34.0,-100.00,SW,230,4.0,11.0,31,0.00,,,0.00,53.000000,,2013-05-20 03:52:00,
2013-05-19 21:02:00,62.0,31.0,-100.00,SW,225,5.0,13.0,31,0.00,,,0.00,0.000000,,2013-05-20 04:02:00,
2013-05-19 21:33:00,62.0,31.0,-100.00,SW,225,5.0,13.0,31,0.00,,,0.00,0.000000,,2013-05-20 04:33:00,
2013-05-19 21:43:00,62.0,31.0,-100.00,SW,225,5.0,13.0,31,0.00,,,0.00,0.000000,,2013-05-20 04:43:00,
2013-05-19 21:52:00,62.0,31.0,-100.00,SW,225,5.0,13.0,31,0.00,,,0.00,0.000000,,2013-05-20 04:52:00,
2013-05-19 22:32:00,58.0,30.0,-100.00,North,358,3.0,10.0,34,0.00,,,0.00,0.000000,,2013-05-20 05:32:00,
2013-05-19 22:42:00,58.0,30.0,-100.00,North,358,3.0,10.0,34,0.00,,,0.00,0.000000,,2013-05-20 05:42:00,
2013-05-19 22:52:00,58.0,30.0,-100.00,North,358,3.0,10.0,34,0.00,,,0.00,0.000000,,2013-05-20 05:52:00,
2013-05-19 23:01:00,58.0,30.0,-100.00,North,358,3.0,10.0,34,0.00,,,0.00,0.000000,,2013-05-20 06:01:00,
2013-05-19 23:32:00,55.0,26.0,-100.00,ESE,102,4.0,5.0,33,0.00,,,0.00,0.000000,,2013-05-20 06:32:00,
2013-05-19 23:42:00,55.0,26.0,-100.00,ESE,102,4.0,5.0,33,0.00,,,0.00,0.000000,,2013-05-20 06:42:00,
2013-05-19 23:52:00,55.0,26.0,-100.00,ESE,102,4.0,5.0,33,0.00,,,0.00,0.000000,,2013-05-20 06:52:00,